sensor_id;sensor_type;location;lat;lon;timestamp;temperature;humidity
16247;DHT22;8231;50.866;7.944;2022-12-07T00:01:19;3.20;99.90
16247;DHT22;8231;50.866;7.944;2022-12-07T00:03:49;3.20;99.90
16247;DHT22;8231;50.866;7.944;2022-12-07T00:06:18;3.20;99.90
16247;DHT22;8231;50.866;7.944;2022-12-07T00:08:46;3.20;99.90
16247;DHT22;8231;50.866;7.944;2022-12-07T00:11:17;3.20;99.90
16247;DHT22;8231;50.866;7.944;2022-12-07T00:13:50;3.20;99.90
16247;DHT22;8231;50.866;7.944;2022-12-07T00:16:20;3.20;99.90
16247;DHT22;8231;50.866;7.944;2022-12-07T00:18:48;3.20;99.90
16247;DHT22;8231;50.866;7.944;2022-12-07T00:21:19;3.20;99.90
16247;DHT22;8231;50.866;7.944;2022-12-07T00:23:48;3.20;99.90
16247;DHT22;8231;50.866;7.944;2022-12-07T00:26:18;3.20;99.90
16247;DHT22;8231;50.866;7.944;2022-12-07T00:28:49;3.30;99.90
16247;DHT22;8231;50.866;7.944;2022-12-07T00:31:20;3.20;99.90
16247;DHT22;8231;50.866;7.944;2022-12-07T00:33:48;3.20;99.90
16247;DHT22;8231;50.866;7.944;2022-12-07T00:36:19;3.20;99.90
16247;DHT22;8231;50.866;7.944;2022-12-07T00:38:53;3.20;99.90
16247;DHT22;8231;50.866;7.944;2022-12-07T00:41:22;3.20;99.90
16247;DHT22;8231;50.866;7.944;2022-12-07T00:43:52;3.20;99.90
16247;DHT22;8231;50.866;7.944;2022-12-07T00:46:21;3.30;99.90
16247;DHT22;8231;50.866;7.944;2022-12-07T00:48:50;3.30;99.90
16247;DHT22;8231;50.866;7.944;2022-12-07T00:51:21;3.30;99.90
16247;DHT22;8231;50.866;7.944;2022-12-07T00:53:49;3.20;99.90
16247;DHT22;8231;50.866;7.944;2022-12-07T00:56:20;3.20;99.90
16247;DHT22;8231;50.866;7.944;2022-12-07T00:58:54;3.20;99.90
16247;DHT22;8231;50.866;7.944;2022-12-07T01:01:23;3.30;99.90
16247;DHT22;8231;50.866;7.944;2022-12-07T01:03:52;3.30;99.90
16247;DHT22;8231;50.866;7.944;2022-12-07T01:06:21;3.20;99.90
16247;DHT22;8231;50.866;7.944;2022-12-07T01:08:51;3.30;99.90
16247;DHT22;8231;50.866;7.944;2022-12-07T01:11:20;3.30;99.90
16247;DHT22;8231;50.866;7.944;2022-12-07T01:13:50;3.20;99.90
16247;DHT22;8231;50.866;7.944;2022-12-07T01:16:21;3.30;99.90
16247;DHT22;8231;50.866;7.944;2022-12-07T01:18:51;3.30;99.90
16247;DHT22;8231;50.866;7.944;2022-12-07T01:21:21;3.30;99.90
16247;DHT22;8231;50.866;7.944;2022-12-07T01:23:50;3.30;99.90
16247;DHT22;8231;50.866;7.944;2022-12-07T01:26:21;3.30;99.90
16247;DHT22;8231;50.866;7.944;2022-12-07T01:28:50;3.30;99.90
16247;DHT22;8231;50.866;7.944;2022-12-07T01:31:22;3.30;99.90
16247;DHT22;8231;50.866;7.944;2022-12-07T01:33:52;3.30;99.90
16247;DHT22;8231;50.866;7.944;2022-12-07T01:36:22;3.30;99.90
16247;DHT22;8231;50.866;7.944;2022-12-07T01:38:52;3.30;99.90
16247;DHT22;8231;50.866;7.944;2022-12-07T01:41:24;3.30;99.90
16247;DHT22;8231;50.866;7.944;2022-12-07T01:44:20;3.30;99.90
16247;DHT22;8231;50.866;7.944;2022-12-07T01:46:51;3.40;99.90
16247;DHT22;8231;50.866;7.944;2022-12-07T01:49:25;3.30;99.90
16247;DHT22;8231;50.866;7.944;2022-12-07T01:52:03;3.40;99.90
16247;DHT22;8231;50.866;7.944;2022-12-07T01:54:35;3.40;99.90
16247;DHT22;8231;50.866;7.944;2022-12-07T01:57:04;3.40;99.90
16247;DHT22;8231;50.866;7.944;2022-12-07T01:59:34;3.40;99.90
16247;DHT22;8231;50.866;7.944;2022-12-07T02:02:07;3.40;99.90
16247;DHT22;8231;50.866;7.944;2022-12-07T02:04:38;3.40;99.90
16247;DHT22;8231;50.866;7.944;2022-12-07T02:07:07;3.40;99.90
16247;DHT22;8231;50.866;7.944;2022-12-07T02:09:35;3.40;99.90
16247;DHT22;8231;50.866;7.944;2022-12-07T02:12:04;3.40;99.90
16247;DHT22;8231;50.866;7.944;2022-12-07T02:14:32;3.40;99.90
16247;DHT22;8231;50.866;7.944;2022-12-07T02:17:08;3.40;99.90
16247;DHT22;8231;50.866;7.944;2022-12-07T02:20:00;3.40;99.90
16247;DHT22;8231;50.866;7.944;2022-12-07T02:22:52;3.40;99.90
16247;DHT22;8231;50.866;7.944;2022-12-07T02:25:33;3.40;99.90
16247;DHT22;8231;50.866;7.944;2022-12-07T02:28:06;3.40;99.90
16247;DHT22;8231;50.866;7.944;2022-12-07T02:30:42;3.50;99.90
16247;DHT22;8231;50.866;7.944;2022-12-07T02:33:15;3.40;99.90
16247;DHT22;8231;50.866;7.944;2022-12-07T02:35:48;3.40;99.90
16247;DHT22;8231;50.866;7.944;2022-12-07T02:38:21;3.40;99.90
16247;DHT22;8231;50.866;7.944;2022-12-07T02:40:54;3.50;99.90
16247;DHT22;8231;50.866;7.944;2022-12-07T02:43:25;3.50;99.90
16247;DHT22;8231;50.866;7.944;2022-12-07T02:45:59;3.50;99.90
16247;DHT22;8231;50.866;7.944;2022-12-07T02:48:31;3.50;99.90
16247;DHT22;8231;50.866;7.944;2022-12-07T02:51:00;3.50;99.90
16247;DHT22;8231;50.866;7.944;2022-12-07T02:53:32;3.50;99.90
16247;DHT22;8231;50.866;7.944;2022-12-07T02:56:05;3.50;99.90
16247;DHT22;8231;50.866;7.944;2022-12-07T02:58:42;3.50;99.90
16247;DHT22;8231;50.866;7.944;2022-12-07T03:01:21;3.50;99.90
16247;DHT22;8231;50.866;7.944;2022-12-07T03:04:01;3.50;99.90
16247;DHT22;8231;50.866;7.944;2022-12-07T03:06:32;3.50;99.90
16247;DHT22;8231;50.866;7.944;2022-12-07T03:09:09;3.50;99.90
16247;DHT22;8231;50.866;7.944;2022-12-07T03:11:46;3.60;99.90
16247;DHT22;8231;50.866;7.944;2022-12-07T03:14:18;3.60;99.90
16247;DHT22;8231;50.866;7.944;2022-12-07T03:16:55;3.60;99.90
16247;DHT22;8231;50.866;7.944;2022-12-07T03:19:26;3.60;99.90
16247;DHT22;8231;50.866;7.944;2022-12-07T03:21:57;3.60;99.90
16247;DHT22;8231;50.866;7.944;2022-12-07T03:24:31;3.60;99.90
16247;DHT22;8231;50.866;7.944;2022-12-07T03:27:06;3.60;99.90
16247;DHT22;8231;50.866;7.944;2022-12-07T03:29:38;3.70;99.90
16247;DHT22;8231;50.866;7.944;2022-12-07T03:32:14;3.60;99.90
16247;DHT22;8231;50.866;7.944;2022-12-07T03:34:46;4.00;99.90
16247;DHT22;8231;50.866;7.944;2022-12-07T03:37:18;3.60;99.90
16247;DHT22;8231;50.866;7.944;2022-12-07T03:39:56;3.60;99.90
16247;DHT22;8231;50.866;7.944;2022-12-07T03:42:26;3.70;99.90
16247;DHT22;8231;50.866;7.944;2022-12-07T03:44:54;3.70;99.90
16247;DHT22;8231;50.866;7.944;2022-12-07T03:47:28;3.70;99.90
16247;DHT22;8231;50.866;7.944;2022-12-07T03:50:00;3.70;99.90
16247;DHT22;8231;50.866;7.944;2022-12-07T03:52:36;3.70;99.90
16247;DHT22;8231;50.866;7.944;2022-12-07T03:55:10;3.70;99.90
16247;DHT22;8231;50.866;7.944;2022-12-07T03:57:42;3.70;99.90
16247;DHT22;8231;50.866;7.944;2022-12-07T04:00:11;3.70;99.90
16247;DHT22;8231;50.866;7.944;2022-12-07T04:02:41;3.70;99.90
16247;DHT22;8231;50.866;7.944;2022-12-07T04:05:11;3.70;99.90
16247;DHT22;8231;50.866;7.944;2022-12-07T04:07:39;3.70;99.90
16247;DHT22;8231;50.866;7.944;2022-12-07T04:10:09;3.70;99.90
16247;DHT22;8231;50.866;7.944;2022-12-07T04:12:37;3.70;99.90
16247;DHT22;8231;50.866;7.944;2022-12-07T04:15:06;3.70;99.90
16247;DHT22;8231;50.866;7.944;2022-12-07T04:17:35;3.80;99.90
16247;DHT22;8231;50.866;7.944;2022-12-07T04:20:06;3.80;99.90
16247;DHT22;8231;50.866;7.944;2022-12-07T04:22:34;3.80;99.90
16247;DHT22;8231;50.866;7.944;2022-12-07T04:25:02;3.80;99.90
16247;DHT22;8231;50.866;7.944;2022-12-07T04:27:31;3.80;99.90
16247;DHT22;8231;50.866;7.944;2022-12-07T04:29:59;3.80;99.90
16247;DHT22;8231;50.866;7.944;2022-12-07T04:32:29;3.80;99.90
16247;DHT22;8231;50.866;7.944;2022-12-07T04:34:57;3.80;99.90
16247;DHT22;8231;50.866;7.944;2022-12-07T04:37:26;3.80;99.90
16247;DHT22;8231;50.866;7.944;2022-12-07T04:39:54;3.80;99.90
16247;DHT22;8231;50.866;7.944;2022-12-07T04:42:22;3.80;99.90
16247;DHT22;8231;50.866;7.944;2022-12-07T04:44:50;3.80;99.90
16247;DHT22;8231;50.866;7.944;2022-12-07T04:47:20;3.90;99.90
16247;DHT22;8231;50.866;7.944;2022-12-07T04:49:48;3.80;99.90
16247;DHT22;8231;50.866;7.944;2022-12-07T04:52:16;3.80;99.90
16247;DHT22;8231;50.866;7.944;2022-12-07T04:54:46;3.80;99.90
16247;DHT22;8231;50.866;7.944;2022-12-07T04:57:14;3.80;99.90
16247;DHT22;8231;50.866;7.944;2022-12-07T04:59:42;3.90;99.90
16247;DHT22;8231;50.866;7.944;2022-12-07T05:02:12;3.80;99.90
16247;DHT22;8231;50.866;7.944;2022-12-07T05:04:40;3.90;99.90
16247;DHT22;8231;50.866;7.944;2022-12-07T05:07:08;3.80;99.90
16247;DHT22;8231;50.866;7.944;2022-12-07T05:09:36;3.80;99.90
16247;DHT22;8231;50.866;7.944;2022-12-07T05:12:05;3.80;99.90
16247;DHT22;8231;50.866;7.944;2022-12-07T05:14:34;3.80;99.90
16247;DHT22;8231;50.866;7.944;2022-12-07T05:17:02;3.80;99.90
16247;DHT22;8231;50.866;7.944;2022-12-07T05:19:30;3.80;99.90
16247;DHT22;8231;50.866;7.944;2022-12-07T05:21:58;3.80;99.90
16247;DHT22;8231;50.866;7.944;2022-12-07T05:24:27;3.70;99.90
16247;DHT22;8231;50.866;7.944;2022-12-07T05:26:55;3.70;99.90
16247;DHT22;8231;50.866;7.944;2022-12-07T05:29:25;3.80;99.90
16247;DHT22;8231;50.866;7.944;2022-12-07T05:31:53;3.80;99.90
16247;DHT22;8231;50.866;7.944;2022-12-07T05:34:21;3.80;99.90
16247;DHT22;8231;50.866;7.944;2022-12-07T05:36:49;3.80;99.90
16247;DHT22;8231;50.866;7.944;2022-12-07T05:39:18;3.80;99.90
16247;DHT22;8231;50.866;7.944;2022-12-07T05:41:46;3.80;99.90
16247;DHT22;8231;50.866;7.944;2022-12-07T05:44:31;3.80;99.90
16247;DHT22;8231;50.866;7.944;2022-12-07T05:47:00;3.80;99.90
16247;DHT22;8231;50.866;7.944;2022-12-07T05:49:29;3.80;99.90
16247;DHT22;8231;50.866;7.944;2022-12-07T05:51:57;3.70;99.90
16247;DHT22;8231;50.866;7.944;2022-12-07T05:54:25;3.70;99.90
16247;DHT22;8231;50.866;7.944;2022-12-07T05:56:53;3.70;99.90
16247;DHT22;8231;50.866;7.944;2022-12-07T05:59:21;3.70;99.90
16247;DHT22;8231;50.866;7.944;2022-12-07T06:01:51;3.60;99.90
16247;DHT22;8231;50.866;7.944;2022-12-07T06:04:20;3.60;99.90
16247;DHT22;8231;50.866;7.944;2022-12-07T06:06:48;3.60;99.90
16247;DHT22;8231;50.866;7.944;2022-12-07T06:09:17;3.60;99.90
16247;DHT22;8231;50.866;7.944;2022-12-07T06:11:46;3.60;99.90
16247;DHT22;8231;50.866;7.944;2022-12-07T06:14:31;3.60;99.90
16247;DHT22;8231;50.866;7.944;2022-12-07T06:17:01;3.50;99.90
16247;DHT22;8231;50.866;7.944;2022-12-07T06:19:29;3.50;99.90
16247;DHT22;8231;50.866;7.944;2022-12-07T06:21:57;3.50;99.90
16247;DHT22;8231;50.866;7.944;2022-12-07T06:24:26;3.50;99.90
16247;DHT22;8231;50.866;7.944;2022-12-07T06:26:54;3.50;99.90
16247;DHT22;8231;50.866;7.944;2022-12-07T06:29:23;3.50;99.90
16247;DHT22;8231;50.866;7.944;2022-12-07T06:31:51;3.40;99.90
16247;DHT22;8231;50.866;7.944;2022-12-07T06:34:22;3.30;99.90
16247;DHT22;8231;50.866;7.944;2022-12-07T06:36:51;3.40;99.90
16247;DHT22;8231;50.866;7.944;2022-12-07T06:39:22;3.50;99.90
16247;DHT22;8231;50.866;7.944;2022-12-07T06:41:51;3.50;99.90
16247;DHT22;8231;50.866;7.944;2022-12-07T06:44:21;3.40;99.90
16247;DHT22;8231;50.866;7.944;2022-12-07T06:46:49;3.40;99.90
16247;DHT22;8231;50.866;7.944;2022-12-07T06:49:23;3.40;99.90
16247;DHT22;8231;50.866;7.944;2022-12-07T06:51:51;3.40;99.90
16247;DHT22;8231;50.866;7.944;2022-12-07T06:54:19;3.40;99.90
16247;DHT22;8231;50.866;7.944;2022-12-07T06:56:47;3.40;99.90
16247;DHT22;8231;50.866;7.944;2022-12-07T06:59:15;3.40;99.90
16247;DHT22;8231;50.866;7.944;2022-12-07T07:01:43;3.40;99.90
16247;DHT22;8231;50.866;7.944;2022-12-07T07:04:11;3.30;99.90
16247;DHT22;8231;50.866;7.944;2022-12-07T07:06:41;3.30;99.90
16247;DHT22;8231;50.866;7.944;2022-12-07T07:09:09;3.30;99.90
16247;DHT22;8231;50.866;7.944;2022-12-07T07:11:37;3.30;99.90
16247;DHT22;8231;50.866;7.944;2022-12-07T07:14:05;3.30;99.90
16247;DHT22;8231;50.866;7.944;2022-12-07T07:16:33;3.30;99.90
16247;DHT22;8231;50.866;7.944;2022-12-07T07:19:01;3.30;99.90
16247;DHT22;8231;50.866;7.944;2022-12-07T07:21:29;3.20;99.90
16247;DHT22;8231;50.866;7.944;2022-12-07T07:23:59;3.20;99.90
16247;DHT22;8231;50.866;7.944;2022-12-07T07:26:27;3.20;99.90
16247;DHT22;8231;50.866;7.944;2022-12-07T07:28:55;3.20;99.90
16247;DHT22;8231;50.866;7.944;2022-12-07T07:31:23;3.20;99.90
16247;DHT22;8231;50.866;7.944;2022-12-07T07:33:51;3.30;99.90
16247;DHT22;8231;50.866;7.944;2022-12-07T07:36:19;3.30;99.90
16247;DHT22;8231;50.866;7.944;2022-12-07T07:38:47;3.30;99.90
16247;DHT22;8231;50.866;7.944;2022-12-07T07:41:16;3.30;99.90
16247;DHT22;8231;50.866;7.944;2022-12-07T07:43:45;3.30;99.90
16247;DHT22;8231;50.866;7.944;2022-12-07T07:46:13;3.30;99.90
16247;DHT22;8231;50.866;7.944;2022-12-07T07:48:41;3.30;99.90
16247;DHT22;8231;50.866;7.944;2022-12-07T07:51:09;3.30;99.90
16247;DHT22;8231;50.866;7.944;2022-12-07T07:53:37;3.40;99.90
16247;DHT22;8231;50.866;7.944;2022-12-07T07:56:05;3.40;99.90
16247;DHT22;8231;50.866;7.944;2022-12-07T07:58:34;3.40;99.90
16247;DHT22;8231;50.866;7.944;2022-12-07T08:01:06;3.40;99.90
16247;DHT22;8231;50.866;7.944;2022-12-07T08:03:35;3.40;99.90
16247;DHT22;8231;50.866;7.944;2022-12-07T08:06:03;3.40;99.90
16247;DHT22;8231;50.866;7.944;2022-12-07T08:08:32;3.40;99.90
16247;DHT22;8231;50.866;7.944;2022-12-07T08:11:00;3.40;99.90
16247;DHT22;8231;50.866;7.944;2022-12-07T08:13:28;3.40;99.90
16247;DHT22;8231;50.866;7.944;2022-12-07T08:16:03;3.40;99.90
16247;DHT22;8231;50.866;7.944;2022-12-07T08:18:35;3.60;99.90
16247;DHT22;8231;50.866;7.944;2022-12-07T08:21:04;3.50;99.90
16247;DHT22;8231;50.866;7.944;2022-12-07T08:23:32;3.50;99.90
16247;DHT22;8231;50.866;7.944;2022-12-07T08:26:07;3.50;99.90
16247;DHT22;8231;50.866;7.944;2022-12-07T08:28:36;3.50;99.90
16247;DHT22;8231;50.866;7.944;2022-12-07T08:31:08;3.60;99.90
16247;DHT22;8231;50.866;7.944;2022-12-07T08:33:38;3.70;99.90
16247;DHT22;8231;50.866;7.944;2022-12-07T08:36:08;3.70;99.90
16247;DHT22;8231;50.866;7.944;2022-12-07T08:38:38;3.70;99.90
16247;DHT22;8231;50.866;7.944;2022-12-07T08:41:07;3.70;99.90
16247;DHT22;8231;50.866;7.944;2022-12-07T08:43:36;3.70;99.90
16247;DHT22;8231;50.866;7.944;2022-12-07T08:46:09;3.70;99.90
16247;DHT22;8231;50.866;7.944;2022-12-07T08:48:42;3.70;99.90
16247;DHT22;8231;50.866;7.944;2022-12-07T08:51:11;3.70;99.90
16247;DHT22;8231;50.866;7.944;2022-12-07T08:53:39;3.70;99.90
16247;DHT22;8231;50.866;7.944;2022-12-07T08:56:09;3.70;99.90
16247;DHT22;8231;50.866;7.944;2022-12-07T08:58:38;3.70;99.90
16247;DHT22;8231;50.866;7.944;2022-12-07T09:01:08;3.70;99.90
16247;DHT22;8231;50.866;7.944;2022-12-07T09:03:36;3.70;99.90
16247;DHT22;8231;50.866;7.944;2022-12-07T09:06:05;3.80;99.90
16247;DHT22;8231;50.866;7.944;2022-12-07T09:08:37;3.80;99.90
16247;DHT22;8231;50.866;7.944;2022-12-07T09:11:06;3.80;99.90
16247;DHT22;8231;50.866;7.944;2022-12-07T09:13:34;3.90;99.90
16247;DHT22;8231;50.866;7.944;2022-12-07T09:16:02;3.90;99.90
16247;DHT22;8231;50.866;7.944;2022-12-07T09:18:31;4.10;99.90
16247;DHT22;8231;50.866;7.944;2022-12-07T09:20:59;4.00;99.90
16247;DHT22;8231;50.866;7.944;2022-12-07T09:23:27;4.00;99.90
16247;DHT22;8231;50.866;7.944;2022-12-07T09:25:59;4.00;99.90
16247;DHT22;8231;50.866;7.944;2022-12-07T09:28:33;4.00;99.90
16247;DHT22;8231;50.866;7.944;2022-12-07T09:31:02;4.00;99.90
16247;DHT22;8231;50.866;7.944;2022-12-07T09:33:54;4.00;99.90
16247;DHT22;8231;50.866;7.944;2022-12-07T09:36:23;4.00;99.90
16247;DHT22;8231;50.866;7.944;2022-12-07T09:38:51;3.90;99.90
16247;DHT22;8231;50.866;7.944;2022-12-07T09:41:20;3.90;99.90
16247;DHT22;8231;50.866;7.944;2022-12-07T09:43:48;4.00;99.90
16247;DHT22;8231;50.866;7.944;2022-12-07T09:46:18;4.00;99.90
16247;DHT22;8231;50.866;7.944;2022-12-07T09:48:47;4.00;99.90
16247;DHT22;8231;50.866;7.944;2022-12-07T09:51:20;4.00;99.90
16247;DHT22;8231;50.866;7.944;2022-12-07T09:53:53;4.00;99.90
16247;DHT22;8231;50.866;7.944;2022-12-07T09:56:22;4.10;99.90
16247;DHT22;8231;50.866;7.944;2022-12-07T09:58:54;4.30;99.90
16247;DHT22;8231;50.866;7.944;2022-12-07T10:01:23;4.40;99.90
16247;DHT22;8231;50.866;7.944;2022-12-07T10:03:54;4.50;99.90
16247;DHT22;8231;50.866;7.944;2022-12-07T10:06:24;4.50;99.90
16247;DHT22;8231;50.866;7.944;2022-12-07T10:08:52;4.60;99.90
16247;DHT22;8231;50.866;7.944;2022-12-07T10:11:21;4.60;99.90
16247;DHT22;8231;50.866;7.944;2022-12-07T10:13:51;4.70;99.90
16247;DHT22;8231;50.866;7.944;2022-12-07T10:16:32;4.70;99.90
16247;DHT22;8231;50.866;7.944;2022-12-07T10:19:23;4.90;99.90
16247;DHT22;8231;50.866;7.944;2022-12-07T10:22:10;4.80;99.90
16247;DHT22;8231;50.866;7.944;2022-12-07T10:24:39;4.80;99.90
16247;DHT22;8231;50.866;7.944;2022-12-07T10:27:18;4.80;99.90
16247;DHT22;8231;50.866;7.944;2022-12-07T10:29:49;4.80;99.90
16247;DHT22;8231;50.866;7.944;2022-12-07T10:32:31;4.70;99.90
16247;DHT22;8231;50.866;7.944;2022-12-07T10:35:20;4.70;99.90
16247;DHT22;8231;50.866;7.944;2022-12-07T10:37:51;4.70;99.90
16247;DHT22;8231;50.866;7.944;2022-12-07T10:40:32;4.80;99.90
16247;DHT22;8231;50.866;7.944;2022-12-07T10:43:03;4.90;99.90
16247;DHT22;8231;50.866;7.944;2022-12-07T10:45:32;5.00;99.90
16247;DHT22;8231;50.866;7.944;2022-12-07T10:48:12;5.00;99.90
16247;DHT22;8231;50.866;7.944;2022-12-07T10:51:02;5.10;99.90
16247;DHT22;8231;50.866;7.944;2022-12-07T10:53:45;5.20;99.90
16247;DHT22;8231;50.866;7.944;2022-12-07T10:56:37;5.10;99.90
16247;DHT22;8231;50.866;7.944;2022-12-07T11:02:56;5.10;99.90
16247;DHT22;8231;50.866;7.944;2022-12-07T11:05:29;5.10;99.90
16247;DHT22;8231;50.866;7.944;2022-12-07T11:08:03;5.10;99.90
16247;DHT22;8231;50.866;7.944;2022-12-07T11:10:43;5.10;99.90
16247;DHT22;8231;50.866;7.944;2022-12-07T11:13:25;5.10;99.90
16247;DHT22;8231;50.866;7.944;2022-12-07T11:16:07;5.10;99.90
16247;DHT22;8231;50.866;7.944;2022-12-07T11:18:48;5.10;99.90
16247;DHT22;8231;50.866;7.944;2022-12-07T11:21:23;5.00;99.90
16247;DHT22;8231;50.866;7.944;2022-12-07T11:24:00;4.90;99.90
16247;DHT22;8231;50.866;7.944;2022-12-07T11:26:42;4.90;99.90
16247;DHT22;8231;50.866;7.944;2022-12-07T11:29:28;5.10;99.90
16247;DHT22;8231;50.866;7.944;2022-12-07T11:32:07;5.00;99.90
16247;DHT22;8231;50.866;7.944;2022-12-07T11:34:42;5.00;99.90
16247;DHT22;8231;50.866;7.944;2022-12-07T11:37:16;5.10;99.90
16247;DHT22;8231;50.866;7.944;2022-12-07T11:39:49;5.10;99.90
16247;DHT22;8231;50.866;7.944;2022-12-07T11:42:24;4.80;99.90
16247;DHT22;8231;50.866;7.944;2022-12-07T11:44:55;4.70;99.90
16247;DHT22;8231;50.866;7.944;2022-12-07T11:47:30;4.60;99.90
16247;DHT22;8231;50.866;7.944;2022-12-07T11:50:09;4.70;99.90
16247;DHT22;8231;50.866;7.944;2022-12-07T11:52:47;4.70;99.90
16247;DHT22;8231;50.866;7.944;2022-12-07T11:55:21;4.60;99.90
16247;DHT22;8231;50.866;7.944;2022-12-07T11:58:00;4.60;99.90
16247;DHT22;8231;50.866;7.944;2022-12-07T12:00:30;4.60;99.90
16247;DHT22;8231;50.866;7.944;2022-12-07T12:03:03;4.50;99.90
16247;DHT22;8231;50.866;7.944;2022-12-07T12:05:32;4.50;99.90
16247;DHT22;8231;50.866;7.944;2022-12-07T12:08:09;4.80;99.90
16247;DHT22;8231;50.866;7.944;2022-12-07T12:11:09;5.00;99.90
16247;DHT22;8231;50.866;7.944;2022-12-07T12:13:55;5.30;99.90
16247;DHT22;8231;50.866;7.944;2022-12-07T12:20:16;5.70;99.90
16247;DHT22;8231;50.866;7.944;2022-12-07T12:22:50;5.70;99.90
16247;DHT22;8231;50.866;7.944;2022-12-07T12:25:23;5.70;99.90
16247;DHT22;8231;50.866;7.944;2022-12-07T12:27:54;5.80;99.90
16247;DHT22;8231;50.866;7.944;2022-12-07T12:30:31;6.00;99.90
16247;DHT22;8231;50.866;7.944;2022-12-07T12:33:15;6.20;99.90
16247;DHT22;8231;50.866;7.944;2022-12-07T12:35:44;6.40;99.90
16247;DHT22;8231;50.866;7.944;2022-12-07T12:38:29;6.40;99.90
16247;DHT22;8231;50.866;7.944;2022-12-07T12:40:58;6.30;99.90
16247;DHT22;8231;50.866;7.944;2022-12-07T12:43:47;6.20;99.90
16247;DHT22;8231;50.866;7.944;2022-12-07T12:46:46;6.10;99.90
16247;DHT22;8231;50.866;7.944;2022-12-07T12:49:43;6.10;99.90
16247;DHT22;8231;50.866;7.944;2022-12-07T12:52:54;6.10;99.90
16247;DHT22;8231;50.866;7.944;2022-12-07T12:55:46;5.90;99.90
16247;DHT22;8231;50.866;7.944;2022-12-07T12:58:35;5.80;99.90
16247;DHT22;8231;50.866;7.944;2022-12-07T13:04:47;5.60;99.90
16247;DHT22;8231;50.866;7.944;2022-12-07T13:07:53;5.50;99.90
16247;DHT22;8231;50.866;7.944;2022-12-07T13:10:27;5.60;99.90
16247;DHT22;8231;50.866;7.944;2022-12-07T13:13:00;5.50;99.90
16247;DHT22;8231;50.866;7.944;2022-12-07T13:15:34;5.50;99.90
16247;DHT22;8231;50.866;7.944;2022-12-07T13:20:52;5.30;99.90
16247;DHT22;8231;50.866;7.944;2022-12-07T13:23:24;5.30;99.90
16247;DHT22;8231;50.866;7.944;2022-12-07T13:26:03;5.20;99.90
16247;DHT22;8231;50.866;7.944;2022-12-07T13:28:37;5.20;99.90
16247;DHT22;8231;50.866;7.944;2022-12-07T13:31:14;5.30;99.90
16247;DHT22;8231;50.866;7.944;2022-12-07T13:33:45;5.20;99.90
16247;DHT22;8231;50.866;7.944;2022-12-07T13:36:24;5.20;99.90
16247;DHT22;8231;50.866;7.944;2022-12-07T13:38:54;5.50;99.90
16247;DHT22;8231;50.866;7.944;2022-12-07T13:41:24;5.80;99.90
16247;DHT22;8231;50.866;7.944;2022-12-07T13:43:58;6.10;99.90
16247;DHT22;8231;50.866;7.944;2022-12-07T13:46:37;6.20;99.90
16247;DHT22;8231;50.866;7.944;2022-12-07T13:49:19;6.40;99.90
16247;DHT22;8231;50.866;7.944;2022-12-07T13:51:49;6.70;99.90
16247;DHT22;8231;50.866;7.944;2022-12-07T13:54:18;6.50;99.90
16247;DHT22;8231;50.866;7.944;2022-12-07T13:56:50;6.30;99.90
16247;DHT22;8231;50.866;7.944;2022-12-07T13:59:21;6.10;99.90
16247;DHT22;8231;50.866;7.944;2022-12-07T14:01:50;5.90;99.90
16247;DHT22;8231;50.866;7.944;2022-12-07T14:04:29;5.60;99.90
16247;DHT22;8231;50.866;7.944;2022-12-07T14:07:00;5.50;99.90
16247;DHT22;8231;50.866;7.944;2022-12-07T14:09:29;5.40;99.90
16247;DHT22;8231;50.866;7.944;2022-12-07T14:11:58;5.30;99.90
16247;DHT22;8231;50.866;7.944;2022-12-07T14:14:29;5.20;99.90
16247;DHT22;8231;50.866;7.944;2022-12-07T14:17:11;5.10;99.90
16247;DHT22;8231;50.866;7.944;2022-12-07T14:19:43;5.10;99.90
16247;DHT22;8231;50.866;7.944;2022-12-07T14:22:25;5.10;99.90
16247;DHT22;8231;50.866;7.944;2022-12-07T14:25:24;5.00;99.90
16247;DHT22;8231;50.866;7.944;2022-12-07T14:27:55;4.90;99.90
16247;DHT22;8231;50.866;7.944;2022-12-07T14:30:26;4.90;99.90
16247;DHT22;8231;50.866;7.944;2022-12-07T14:32:57;4.90;99.90
16247;DHT22;8231;50.866;7.944;2022-12-07T14:35:27;4.80;99.90
16247;DHT22;8231;50.866;7.944;2022-12-07T14:37:57;4.90;99.90
16247;DHT22;8231;50.866;7.944;2022-12-07T14:40:27;4.90;99.90
16247;DHT22;8231;50.866;7.944;2022-12-07T14:42:58;4.80;99.90
16247;DHT22;8231;50.866;7.944;2022-12-07T14:45:28;4.80;99.90
16247;DHT22;8231;50.866;7.944;2022-12-07T14:47:56;4.80;99.90
16247;DHT22;8231;50.866;7.944;2022-12-07T14:50:45;4.80;99.90
16247;DHT22;8231;50.866;7.944;2022-12-07T14:53:40;4.80;99.90
16247;DHT22;8231;50.866;7.944;2022-12-07T14:56:09;4.80;99.90
16247;DHT22;8231;50.866;7.944;2022-12-07T14:58:37;4.80;99.90
16247;DHT22;8231;50.866;7.944;2022-12-07T15:01:06;4.70;99.90
16247;DHT22;8231;50.866;7.944;2022-12-07T15:03:34;4.60;99.90
16247;DHT22;8231;50.866;7.944;2022-12-07T15:06:05;4.60;99.90
16247;DHT22;8231;50.866;7.944;2022-12-07T15:08:33;4.60;99.90
16247;DHT22;8231;50.866;7.944;2022-12-07T15:11:03;4.50;99.90
16247;DHT22;8231;50.866;7.944;2022-12-07T15:13:31;4.50;99.90
16247;DHT22;8231;50.866;7.944;2022-12-07T15:16:19;4.40;99.90
16247;DHT22;8231;50.866;7.944;2022-12-07T15:18:48;4.40;99.90
16247;DHT22;8231;50.866;7.944;2022-12-07T15:21:36;4.40;99.90
16247;DHT22;8231;50.866;7.944;2022-12-07T15:24:04;4.40;99.90
16247;DHT22;8231;50.866;7.944;2022-12-07T15:26:34;4.40;99.90
16247;DHT22;8231;50.866;7.944;2022-12-07T15:29:02;4.30;99.90
16247;DHT22;8231;50.866;7.944;2022-12-07T15:31:30;4.40;99.90
16247;DHT22;8231;50.866;7.944;2022-12-07T15:34:19;4.30;99.90
16247;DHT22;8231;50.866;7.944;2022-12-07T15:36:47;4.30;99.90
16247;DHT22;8231;50.866;7.944;2022-12-07T15:39:15;4.30;99.90
16247;DHT22;8231;50.866;7.944;2022-12-07T15:41:44;4.20;99.90
16247;DHT22;8231;50.866;7.944;2022-12-07T15:44:13;4.20;99.90
16247;DHT22;8231;50.866;7.944;2022-12-07T15:46:59;4.20;99.90
16247;DHT22;8231;50.866;7.944;2022-12-07T15:49:28;4.20;99.90
16247;DHT22;8231;50.866;7.944;2022-12-07T15:51:56;4.10;99.90
16247;DHT22;8231;50.866;7.944;2022-12-07T15:54:26;4.00;99.90
16247;DHT22;8231;50.866;7.944;2022-12-07T15:56:55;4.10;99.90
16247;DHT22;8231;50.866;7.944;2022-12-07T15:59:25;4.00;99.90
16247;DHT22;8231;50.866;7.944;2022-12-07T16:01:53;4.00;99.90
16247;DHT22;8231;50.866;7.944;2022-12-07T16:04:21;3.80;99.90
16247;DHT22;8231;50.866;7.944;2022-12-07T16:06:49;3.80;99.90
16247;DHT22;8231;50.866;7.944;2022-12-07T16:09:18;3.90;99.90
16247;DHT22;8231;50.866;7.944;2022-12-07T16:11:46;3.80;99.90
16247;DHT22;8231;50.866;7.944;2022-12-07T16:14:16;3.80;99.90
16247;DHT22;8231;50.866;7.944;2022-12-07T16:16:44;3.80;99.90
16247;DHT22;8231;50.866;7.944;2022-12-07T16:19:12;3.80;99.90
16247;DHT22;8231;50.866;7.944;2022-12-07T16:21:40;3.80;99.90
16247;DHT22;8231;50.866;7.944;2022-12-07T16:24:09;3.80;99.90
16247;DHT22;8231;50.866;7.944;2022-12-07T16:26:39;3.80;99.90
16247;DHT22;8231;50.866;7.944;2022-12-07T16:29:17;3.80;99.90
16247;DHT22;8231;50.866;7.944;2022-12-07T16:31:47;3.70;99.90
16247;DHT22;8231;50.866;7.944;2022-12-07T16:34:16;3.70;99.90
16247;DHT22;8231;50.866;7.944;2022-12-07T16:36:44;3.70;99.90
16247;DHT22;8231;50.866;7.944;2022-12-07T16:39:31;3.70;99.90
16247;DHT22;8231;50.866;7.944;2022-12-07T16:41:59;3.70;99.90
16247;DHT22;8231;50.866;7.944;2022-12-07T16:44:28;3.70;99.90
16247;DHT22;8231;50.866;7.944;2022-12-07T16:46:57;3.60;99.90
16247;DHT22;8231;50.866;7.944;2022-12-07T16:49:25;3.60;99.90